Time;durP1;ratioP1;P1;durP2;ratioP2;P2;SDS_P1;SDS_P2;PMS_P1;PMS_P2;Temp;Humidity;BMP_temperature;BMP_pressure;BME280_temperature;BME280_humidity;BME280_pressure;Samples;Min_cycle;Max_cycle;Signal;HPM_P1;HPM_P2
2022/12/27 00:00:40;;;;;;;21.50;10.40;;;;;;;6.95;78.68;98880.80;103211;1295;99237;-67
2022/12/27 00:03:26;;;;;;;22.60;12.50;;;;;;;6.96;78.62;98883.63;103264;1297;99370;-68
2022/12/27 00:05:58;;;;;;;22.10;11.40;;;;;;;6.95;78.69;98880.86;103267;1302;113470;-70
2022/12/27 00:08:26;;;;;;;23.80;11.40;;;;;;;6.97;78.58;98877.37;103260;1300;99048;-68
2022/12/27 00:10:54;;;;;;;22.60;10.70;;;;;;;6.97;78.63;98874.54;103283;1297;107868;-67
2022/12/27 00:13:22;;;;;;;20.60;10.10;;;;;;;6.97;78.70;98875.61;103292;1294;99332;-68
2022/12/27 00:15:52;;;;;;;21.20;10.00;;;;;;;6.97;78.66;98874.91;103284;1300;99317;-67
2022/12/27 00:18:20;;;;;;;20.50;9.90;;;;;;;6.97;78.48;98878.11;103237;1300;113148;-67
2022/12/27 00:20:48;;;;;;;21.50;10.20;;;;;;;6.97;78.64;98873.31;103349;1297;96467;-69
2022/12/27 00:23:16;;;;;;;21.90;9.70;;;;;;;6.96;78.60;98869.65;103255;1300;108073;-69
2022/12/27 00:25:48;;;;;;;22.20;9.90;;;;;;;6.95;78.64;98870.10;103280;1297;99257;-68
2022/12/27 00:28:16;;;;;;;20.00;9.40;;;;;;;6.93;78.60;98863.52;103298;1301;96523;-68
2022/12/27 00:30:44;;;;;;;18.90;9.10;;;;;;;6.93;78.58;98864.77;103230;1302;112194;-67
2022/12/27 00:33:13;;;;;;;21.00;9.20;;;;;;;6.93;78.50;98861.77;103250;1292;99220;-67
2022/12/27 00:35:41;;;;;;;19.20;9.00;;;;;;;6.93;78.56;98859.27;103118;1304;107547;-69
2022/12/27 00:38:09;;;;;;;21.00;10.00;;;;;;;6.93;78.59;98854.01;103200;1300;99221;-70
2022/12/27 00:40:45;;;;;;;20.00;8.90;;;;;;;6.92;78.56;98855.66;103235;1294;99263;-68
2022/12/27 00:43:13;;;;;;;20.60;9.70;;;;;;;6.91;78.74;98858.38;103135;1304;112187;-71
2022/12/27 00:45:45;;;;;;;21.10;10.20;;;;;;;6.91;78.63;98863.50;102967;1300;99278;-67
2022/12/27 00:48:13;;;;;;;20.40;9.20;;;;;;;6.90;78.44;98858.98;103045;1304;108104;-68
2022/12/27 00:51:00;;;;;;;20.40;9.30;;;;;;;6.89;78.51;98856.38;103067;1294;99241;-67
2022/12/27 00:53:34;;;;;;;19.30;8.80;;;;;;;6.88;78.62;98853.05;103117;1297;99342;-67
2022/12/27 00:56:15;;;;;;;21.20;9.60;;;;;;;6.90;78.70;98856.84;103127;1296;111567;-68
2022/12/27 00:58:43;;;;;;;19.90;9.00;;;;;;;6.89;78.48;98855.48;103145;1304;99222;-67
2022/12/27 01:01:20;;;;;;;20.00;8.90;;;;;;;6.89;78.63;98853.56;103080;1298;107488;-71
2022/12/27 01:03:49;;;;;;;20.20;9.20;;;;;;;6.87;78.51;98856.82;103092;1304;96570;-67
2022/12/27 01:06:23;;;;;;;20.10;8.70;;;;;;;6.86;78.47;98854.94;103080;1298;96646;-68
2022/12/27 01:08:52;;;;;;;18.20;8.40;;;;;;;6.85;78.49;98854.80;103162;1297;112146;-68
2022/12/27 01:11:20;;;;;;;20.20;8.90;;;;;;;6.85;78.50;98854.29;103257;1295;99300;-68
2022/12/27 01:13:49;;;;;;;19.20;9.70;;;;;;;6.84;78.52;98847.82;103307;1302;108137;-68
2022/12/27 01:16:23;;;;;;;19.20;8.50;;;;;;;6.84;78.41;98851.71;103014;1300;99337;-67
2022/12/27 01:18:54;;;;;;;19.70;9.30;;;;;;;6.84;78.59;98852.61;103125;1297;96696;-67
2022/12/27 01:21:24;;;;;;;18.00;8.10;;;;;;;6.83;78.53;98849.61;103121;1287;113152;-67
2022/12/27 01:23:54;;;;;;;19.10;8.60;;;;;;;6.83;78.45;98850.70;103199;1303;99292;-68
2022/12/27 01:26:24;;;;;;;18.60;8.80;;;;;;;6.82;78.50;98854.63;103215;1300;108041;-68
2022/12/27 01:28:54;;;;;;;19.40;8.80;;;;;;;6.81;78.63;98853.83;103131;1303;99166;-68
2022/12/27 01:31:28;;;;;;;19.60;8.90;;;;;;;6.81;78.58;98841.86;103155;1303;99250;-66
2022/12/27 01:34:02;;;;;;;18.70;8.60;;;;;;;6.80;78.57;98835.20;103150;1303;113128;-67
2022/12/27 01:36:35;;;;;;;19.40;8.90;;;;;;;6.80;78.57;98829.90;103154;1298;99222;-67
2022/12/27 01:39:02;;;;;;;19.30;8.60;;;;;;;6.79;78.60;98823.98;103053;1300;107876;-67
2022/12/27 01:44:50;;;;;;;18.40;8.30;;;;;;;6.73;78.55;98807.07;103159;1287;98233;-67
2022/12/27 01:47:24;;;;;;;21.10;9.20;;;;;;;6.73;78.56;98811.69;103094;1296;113156;-67
2022/12/27 01:50:32;;;;;;;17.30;8.00;;;;;;;6.71;78.58;98807.73;103085;1303;96549;-68
2022/12/27 01:53:20;;;;;;;20.90;8.80;;;;;;;6.67;78.58;98807.08;103063;1297;108321;-66
2022/12/27 01:55:58;;;;;;;20.40;9.40;;;;;;;6.64;78.50;98808.02;103062;1304;99347;-68
2022/12/27 01:59:00;;;;;;;18.80;8.60;;;;;;;6.62;78.69;98811.10;103124;1303;99278;-68
2022/12/27 02:01:41;;;;;;;19.50;9.40;;;;;;;6.62;78.85;98813.38;103253;1302;112791;-68
2022/12/27 02:04:17;;;;;;;17.30;8.10;;;;;;;6.63;78.75;98807.33;103119;1304;99121;-67
2022/12/27 02:06:51;;;;;;;18.30;8.50;;;;;;;6.62;78.64;98804.38;103270;1295;108405;-65
2022/12/27 02:09:28;;;;;;;18.50;7.60;;;;;;;6.62;78.63;98805.84;103289;1297;99174;-67
2022/12/27 02:12:01;;;;;;;18.80;8.10;;;;;;;6.62;78.72;98803.20;103224;1304;99224;-67
2022/12/27 02:14:37;;;;;;;20.70;8.60;;;;;;;6.63;78.80;98796.23;103226;1296;113243;-68
2022/12/27 02:17:13;;;;;;;18.90;8.90;;;;;;;6.65;78.77;98801.77;103235;1294;99250;-68
2022/12/27 02:19:41;;;;;;;19.70;8.90;;;;;;;6.67;78.84;98793.87;103254;1302;107979;-68
2022/12/27 02:22:15;;;;;;;18.20;8.80;;;;;;;6.70;78.71;98789.82;103222;1290;99216;-67
2022/12/27 02:25:35;;;;;;;20.60;8.40;;;;;;;6.72;78.73;98787.79;103104;1297;99256;-68
2022/12/27 02:28:21;;;;;;;18.90;7.90;;;;;;;6.73;78.62;98785.80;103127;1297;113267;-67
2022/12/27 02:31:03;;;;;;;16.90;7.90;;;;;;;6.73;78.80;98775.52;103098;1297;97639;-68
2022/12/27 02:33:47;;;;;;;18.90;7.80;;;;;;;6.72;78.84;98769.08;103084;1305;107431;-67
2022/12/27 02:36:21;;;;;;;;;;;;;;;6.71;78.64;98761.05;103144;1304;99461;-67
2022/12/27 02:38:55;;;;;;;18.20;7.50;;;;;;;6.68;78.68;98760.15;103285;1301;99329;-68
2022/12/27 02:53:24;;;;;;;19.10;8.00;;;;;;;6.76;78.69;98777.14;103267;1300;99345;-68
2022/12/27 02:59:30;;;;;;;17.90;8.40;;;;;;;6.77;78.59;98779.17;103208;1297;99221;-68
2022/12/27 03:05:32;;;;;;;17.70;7.50;;;;;;;6.80;78.58;98763.49;103095;1289;99235;-67
2022/12/27 03:08:35;;;;;;;18.30;8.40;;;;;;;6.79;78.67;98764.08;103117;1307;99410;-67
2022/12/27 03:16:54;;;;;;;17.80;7.90;;;;;;;6.82;78.60;98771.13;103214;1294;107215;-67
2022/12/27 03:25:29;;;;;;;17.90;8.30;;;;;;;6.82;78.62;98761.42;103018;1296;113298;-67
2022/12/27 03:34:30;;;;;;;19.80;9.50;;;;;;;6.81;78.81;98756.55;103041;1304;99366;-67
2022/12/27 03:40:24;;;;;;;19.20;9.30;;;;;;;6.77;78.63;98736.84;103188;1301;113653;-66
2022/12/27 03:43:09;;;;;;;17.60;8.40;;;;;;;6.74;78.58;98741.98;103110;1303;99214;-65
2022/12/27 03:49:08;;;;;;;17.90;8.10;;;;;;;6.70;78.76;98738.88;103233;1295;99223;-67
2022/12/27 03:51:48;;;;;;;17.90;8.10;;;;;;;6.71;78.70;98738.17;103314;1300;96631;-68
2022/12/27 03:54:25;;;;;;;20.90;9.30;;;;;;;6.70;78.78;98738.90;103330;1295;113072;-68
2022/12/27 03:57:05;;;;;;;19.10;9.10;;;;;;;6.70;78.63;98741.33;103260;1300;99227;-67
2022/12/27 03:59:38;;;;;;;20.50;8.80;;;;;;;6.70;78.74;98735.03;103111;1302;107566;-68
2022/12/27 04:02:11;;;;;;;18.40;8.20;;;;;;;6.69;78.81;98739.08;103090;1304;99341;-66
2022/12/27 04:04:44;;;;;;;19.10;8.00;;;;;;;6.68;78.91;98739.90;103089;1297;99322;-67
2022/12/27 04:07:16;;;;;;;19.60;9.30;;;;;;;6.66;78.74;98742.83;103093;1301;112978;-68
2022/12/27 04:34:55;;;;;;;18.50;7.90;;;;;;;6.72;78.83;98749.91;103180;1295;113156;-68
2022/12/27 04:37:23;;;;;;;18.50;8.10;;;;;;;6.72;78.80;98749.34;103203;1302;100001;-68
2022/12/27 04:56:41;;;;;;;14.20;6.30;;;;;;;6.75;79.05;98817.38;103012;1304;99561;-70
2022/12/27 05:02:02;;;;;;;14.40;5.80;;;;;;;6.79;79.47;98831.02;103048;1296;113851;-69
2022/12/27 05:04:41;;;;;;;13.80;5.70;;;;;;;6.85;79.64;98835.08;103120;1297;99203;-67
2022/12/27 05:15:42;;;;;;;11.00;5.00;;;;;;;6.96;79.69;98837.08;103031;1297;113089;-69
2022/12/27 05:18:15;;;;;;;11.70;4.80;;;;;;;6.96;79.50;98842.50;103060;1297;98566;-69
2022/12/27 05:20:48;;;;;;;11.50;5.10;;;;;;;6.97;79.45;98842.46;103044;1290;108114;-69
2022/12/27 05:26:03;;;;;;;10.90;4.50;;;;;;;6.98;79.32;98848.08;103219;1301;99673;-68
2022/12/27 05:28:35;;;;;;;11.90;4.90;;;;;;;6.98;79.31;98849.10;103202;1297;113179;-69
2022/12/27 05:31:06;;;;;;;11.60;4.90;;;;;;;6.99;79.37;98852.38;103254;1297;99236;-69
2022/12/27 05:33:34;;;;;;;9.80;4.30;;;;;;;7.00;79.49;98860.11;103148;1303;108098;-68
2022/12/27 05:36:07;;;;;;;9.80;4.40;;;;;;;7.00;79.54;98863.45;103165;1304;99347;-68
2022/12/27 05:38:40;;;;;;;11.10;4.60;;;;;;;7.00;79.50;98866.45;103196;1297;99237;-69
2022/12/27 05:41:11;;;;;;;10.60;4.70;;;;;;;7.00;79.31;98864.17;103138;1296;112957;-69
2022/12/27 05:43:44;;;;;;;11.70;4.70;;;;;;;7.00;79.19;98860.45;103166;1298;97470;-69
2022/12/27 05:46:19;;;;;;;8.40;4.00;;;;;;;6.99;79.50;98867.02;103145;1297;107506;-69
2022/12/27 05:48:52;;;;;;;9.90;4.30;;;;;;;6.97;79.54;98865.36;103130;1305;99318;-68
2022/12/27 05:51:22;;;;;;;10.80;4.60;;;;;;;6.96;79.51;98874.95;103304;1288;99227;-69
2022/12/27 05:53:50;;;;;;;9.20;4.00;;;;;;;6.96;79.40;98879.04;103050;1290;111877;-69
2022/12/27 05:56:22;;;;;;;12.80;4.70;;;;;;;6.95;79.27;98888.60;103030;1297;99221;-70
2022/12/27 05:58:57;;;;;;;10.60;4.80;;;;;;;6.95;79.54;98885.39;103037;1304;107263;-70
2022/12/27 06:01:25;;;;;;;13.60;4.30;;;;;;;6.97;79.51;98895.20;103020;1301;99391;-68
2022/12/27 06:03:54;;;;;;;9.60;4.00;;;;;;;6.98;79.40;98900.80;103069;1296;99248;-68
2022/12/27 06:06:22;;;;;;;10.60;4.50;;;;;;;6.98;79.30;98898.30;103070;1298;113128;-68
2022/12/27 06:08:50;;;;;;;11.80;4.90;;;;;;;6.98;79.49;98908.64;103050;1297;99309;-68
2022/12/27 06:11:22;;;;;;;9.70;4.30;;;;;;;6.98;79.44;98918.52;103080;1301;107897;-70
2022/12/27 06:13:55;;;;;;;11.00;4.40;;;;;;;6.98;79.50;98923.30;103112;1303;99329;-69
2022/12/27 06:16:23;;;;;;;8.90;3.90;;;;;;;6.97;79.34;98932.71;103129;1296;99328;-69
2022/12/27 06:18:53;;;;;;;13.30;5.00;;;;;;;6.96;79.44;98935.25;103097;1296;113055;-68
2022/12/27 06:21:22;;;;;;;11.60;4.80;;;;;;;6.94;79.45;98937.31;103142;1297;99323;-68
2022/12/27 06:23:51;;;;;;;10.50;4.60;;;;;;;6.91;79.30;98947.90;103077;1302;108402;-68
2022/12/27 06:26:25;;;;;;;9.40;4.20;;;;;;;6.89;79.39;98946.82;103062;1298;99694;-69
2022/12/27 06:28:59;;;;;;;9.60;4.20;;;;;;;6.86;79.39;98942.54;103111;1290;99227;-68
2022/12/27 06:31:29;;;;;;;11.80;4.90;;;;;;;6.84;79.27;98946.33;103116;1298;112299;-69
2022/12/27 06:33:57;;;;;;;9.60;4.30;;;;;;;6.83;79.32;98952.27;103120;1295;99234;-66
2022/12/27 06:36:28;;;;;;;8.60;3.80;;;;;;;6.80;79.32;98957.33;103028;1297;107987;-68
2022/12/27 06:39:02;;;;;;;9.40;3.60;;;;;;;6.78;79.36;98965.23;103163;1304;99423;-68
2022/12/27 06:41:30;;;;;;;7.00;3.40;;;;;;;6.74;79.35;98974.61;103078;1303;97605;-69
2022/12/27 06:43:58;;;;;;;10.60;3.50;;;;;;;6.72;79.35;98982.69;103072;1297;112189;-69
2022/12/27 06:46:26;;;;;;;7.20;3.40;;;;;;;6.68;79.43;98990.80;103106;1296;99318;-68
2022/12/27 06:48:54;;;;;;;7.50;3.60;;;;;;;6.66;79.42;99001.36;103141;1304;106735;-68
2022/12/27 06:51:26;;;;;;;9.30;3.60;;;;;;;6.64;79.43;99006.90;103072;1304;100940;-69
2022/12/27 06:53:54;;;;;;;9.50;3.70;;;;;;;6.62;79.39;99011.61;103053;1296;96760;-68
2022/12/27 06:56:26;;;;;;;9.70;3.80;;;;;;;6.59;79.36;99013.88;103048;1296;113540;-70
2022/12/27 06:58:55;;;;;;;6.90;3.60;;;;;;;6.58;79.38;99023.99;103088;1296;97400;-69
2022/12/27 07:01:29;;;;;;;7.00;3.40;;;;;;;6.56;79.31;99028.52;103057;1297;107503;-68
2022/12/27 07:03:59;;;;;;;6.10;3.10;;;;;;;6.53;79.34;99035.18;103139;1304;99238;-71
2022/12/27 07:06:32;;;;;;;6.20;3.00;;;;;;;6.53;79.38;99046.25;103102;1304;99333;-69
2022/12/27 07:09:05;;;;;;;7.60;3.50;;;;;;;6.55;79.34;99049.69;103086;1297;113097;-68
2022/12/27 07:11:38;;;;;;;7.20;3.00;;;;;;;6.57;79.34;99044.48;103258;1301;96603;-69
2022/12/27 07:14:13;;;;;;;;;;;;;;;6.58;79.21;99054.13;103100;1297;107399;-68
2022/12/27 07:16:41;;;;;;;5.70;3.00;;;;;;;6.56;79.33;99058.98;103228;1297;99316;-66
2022/12/27 07:19:13;;;;;;;6.80;3.20;;;;;;;6.56;79.29;99069.56;103214;1297;98304;-67
2022/12/27 07:21:44;;;;;;;5.00;3.10;;;;;;;6.56;79.29;99075.20;103254;1294;112520;-67
2022/12/27 07:24:12;;;;;;;5.30;2.90;;;;;;;6.56;79.26;99090.16;103294;1297;99181;-68
2022/12/27 07:26:40;;;;;;;7.80;3.70;;;;;;;6.54;79.31;99093.45;103165;1304;108080;-69
2022/12/27 07:29:13;;;;;;;7.70;3.40;;;;;;;6.51;79.30;99094.99;103152;1297;99101;-68
2022/12/27 07:31:41;;;;;;;8.00;3.40;;;;;;;6.51;79.25;99097.00;103093;1306;99310;-69
2022/12/27 07:34:14;;;;;;;6.60;3.40;;;;;;;6.49;79.23;99103.63;103124;1303;113157;-68
2022/12/27 07:36:42;;;;;;;6.20;3.50;;;;;;;6.45;79.32;99111.55;103090;1298;99234;-67
2022/12/27 07:39:11;;;;;;;8.90;3.50;;;;;;;6.42;79.29;99112.23;103094;1296;108042;-66
2022/12/27 07:41:39;;;;;;;6.70;3.40;;;;;;;6.39;79.18;99124.55;103014;1304;99543;-67
2022/12/27 07:44:13;;;;;;;5.70;2.50;;;;;;;6.35;79.12;99147.13;103021;1303;99309;-67
2022/12/27 07:46:41;;;;;;;5.60;3.00;;;;;;;6.24;79.00;99129.95;103225;1297;112573;-66
2022/12/27 07:49:13;;;;;;;2.40;1.90;;;;;;;6.14;79.00;99135.42;103151;1295;96921;-67
2022/12/27 07:51:44;;;;;;;4.00;2.40;;;;;;;6.11;78.94;99151.39;103199;1300;107517;-69
2022/12/27 07:54:12;;;;;;;5.80;2.20;;;;;;;6.11;78.81;99158.27;103194;1294;99221;-68
2022/12/27 07:56:40;;;;;;;3.40;2.20;;;;;;;6.13;79.12;99165.20;103241;1287;99287;-73
2022/12/27 07:59:12;;;;;;;4.00;2.20;;;;;;;6.15;78.67;99170.41;103246;1303;112125;-69
2022/12/27 08:04:35;;;;;;;5.10;2.50;;;;;;;6.06;78.79;99187.09;103292;1301;108240;-69
2022/12/27 08:07:12;;;;;;;3.10;2.20;;;;;;;6.01;78.81;99206.52;103234;1297;97215;-68
2022/12/27 08:09:46;;;;;;;7.30;2.70;;;;;;;5.93;78.59;99220.08;104456;1297;96934;-67
2022/12/27 08:12:18;;;;;;;7.10;2.70;;;;;;;5.84;78.52;99222.33;103210;1300;112118;-67
2022/12/27 08:14:46;;;;;;;4.90;2.60;;;;;;;5.75;78.34;99232.59;103276;1301;98294;-67
2022/12/27 08:17:23;;;;;;;7.70;3.30;;;;;;;5.67;78.51;99237.95;103819;1295;108199;-68
2022/12/27 08:19:52;;;;;;;5.40;3.10;;;;;;;5.57;78.42;99246.34;103236;1301;99287;-69
2022/12/27 08:22:23;;;;;;;10.10;2.80;;;;;;;5.49;78.35;99259.73;103292;1295;99217;-68
2022/12/27 08:24:52;;;;;;;6.00;3.00;;;;;;;5.43;78.46;99281.31;103285;1297;113052;-69
2022/12/27 08:27:26;;;;;;;7.70;3.60;;;;;;;5.40;78.63;99278.47;103133;1294;99243;-67
2022/12/27 08:29:54;;;;;;;6.60;3.50;;;;;;;5.38;78.49;99295.10;103204;1297;108100;-66
2022/12/27 08:32:23;;;;;;;11.60;3.80;;;;;;;5.33;78.37;99303.77;103065;1304;99312;-67
2022/12/27 08:34:51;;;;;;;9.20;3.00;;;;;;;5.28;78.07;99307.02;103317;1294;99346;-67
2022/12/27 08:37:19;;;;;;;11.30;3.10;;;;;;;5.20;77.87;99323.88;103166;1304;112896;-66
2022/12/27 08:39:47;;;;;;;12.90;3.50;;;;;;;5.12;77.83;99326.70;103271;1302;96971;-68
2022/12/27 08:42:20;;;;;;;9.20;2.90;;;;;;;5.07;77.66;99338.88;103120;1297;108096;-67
2022/12/27 08:44:48;;;;;;;13.00;3.80;;;;;;;5.04;77.47;99344.14;103213;1298;99235;-66
2022/12/27 08:47:18;;;;;;;10.10;3.10;;;;;;;5.03;77.76;99341.52;103206;1304;99218;-67
2022/12/27 08:49:50;;;;;;;9.80;2.60;;;;;;;5.01;77.60;99349.35;103054;1304;113131;-64
2022/12/27 08:52:18;;;;;;;11.30;2.90;;;;;;;4.96;77.34;99338.15;103048;1296;99245;-67
2022/12/27 08:54:46;;;;;;;13.50;2.60;;;;;;;4.91;77.12;99350.14;103113;1301;107737;-67
2022/12/27 08:57:17;;;;;;;11.00;3.10;;;;;;;4.90;77.18;99353.85;103076;1296;99229;-67
2022/12/27 08:59:45;;;;;;;13.80;3.20;;;;;;;4.88;77.44;99361.17;103166;1297;99228;-67
2022/12/27 09:02:13;;;;;;;6.50;2.40;;;;;;;4.85;76.97;99360.27;103125;1296;112757;-68
2022/12/27 09:04:43;;;;;;;11.30;3.00;;;;;;;4.78;76.63;99370.75;103153;1296;96917;-67
2022/12/27 09:07:12;;;;;;;11.10;2.70;;;;;;;4.73;76.78;99359.20;103054;1301;108027;-67
2022/12/27 09:09:40;;;;;;;11.30;2.70;;;;;;;4.68;76.62;99364.88;103097;1304;99358;-67
2022/12/27 09:12:08;;;;;;;11.80;3.30;;;;;;;4.64;76.79;99367.67;103143;1304;99225;-66
2022/12/27 09:14:37;;;;;;;9.00;3.60;;;;;;;4.63;76.76;99367.88;103085;1297;114065;-67
2022/12/27 09:17:07;;;;;;;10.70;3.90;;;;;;;4.65;76.95;99376.27;103035;1298;99348;-67
2022/12/27 09:19:36;;;;;;;13.50;4.00;;;;;;;4.67;76.83;99377.56;103011;1298;106324;-67
2022/12/27 09:22:04;;;;;;;13.30;3.40;;;;;;;4.68;76.78;99377.70;103069;1296;99234;-67
2022/12/27 09:24:32;;;;;;;8.80;3.10;;;;;;;4.68;76.62;99377.88;103106;1296;96893;-68
2022/12/27 09:27:00;;;;;;;7.30;2.70;;;;;;;4.64;76.33;99384.70;103122;1298;113127;-66
2022/12/27 09:29:29;;;;;;;11.80;3.10;;;;;;;4.65;76.44;99390.85;103139;1297;99249;-67
2022/12/27 09:31:57;;;;;;;16.70;4.10;;;;;;;4.66;76.29;99397.10;103048;1301;108234;-66
2022/12/27 09:34:25;;;;;;;12.60;3.30;;;;;;;4.68;76.37;99395.11;103114;1284;99240;-67
2022/12/27 09:36:55;;;;;;;29.10;10.20;;;;;;;4.67;76.32;99398.81;103107;1297;100709;-69
2022/12/27 09:39:24;;;;;;;15.50;4.10;;;;;;;4.68;76.48;99405.26;103104;1295;113035;-68
2022/12/27 09:41:59;;;;;;;14.10;3.50;;;;;;;4.70;76.42;99406.95;103077;1297;97648;-70
2022/12/27 09:44:52;;;;;;;12.10;3.60;;;;;;;4.70;75.64;99403.78;103206;1297;108192;-67
2022/12/27 09:47:23;;;;;;;16.10;3.30;;;;;;;4.67;76.09;99408.67;103239;1297;99311;-67
2022/12/27 09:50:01;;;;;;;14.90;3.30;;;;;;;4.64;76.05;99413.52;103255;1300;97361;-68
2022/12/27 09:52:41;;;;;;;11.60;3.00;;;;;;;4.67;76.21;99422.02;103223;1297;112986;-68
2022/12/27 09:55:32;;;;;;;12.20;3.50;;;;;;;4.68;75.88;99430.41;103249;1294;96514;-67
2022/12/27 09:58:31;;;;;;;14.30;3.30;;;;;;;4.67;76.14;99436.41;103261;1296;107006;-67
2022/12/27 10:01:01;;;;;;;18.40;3.90;;;;;;;4.64;76.10;99435.65;103253;1296;99341;-66
2022/12/27 10:03:31;;;;;;;14.40;3.30;;;;;;;4.60;76.00;99436.71;103124;1304;100101;-67
2022/12/27 10:06:19;;;;;;;15.90;3.00;;;;;;;4.59;75.81;99430.96;103187;1295;112664;-67
2022/12/27 10:09:26;;;;;;;19.90;4.70;;;;;;;4.57;76.03;99428.23;103070;1295;99380;-67
2022/12/27 10:12:20;;;;;;;14.00;3.70;;;;;;;4.56;75.63;99426.86;104465;1300;107836;-68
2022/12/27 10:15:45;;;;;;;17.90;4.50;;;;;;;4.65;75.90;99426.81;103243;1295;99883;-68
2022/12/27 10:18:22;;;;;;;21.00;4.90;;;;;;;4.86;75.23;99431.75;103318;1300;99219;-68
2022/12/27 10:21:01;;;;;;;16.60;3.70;;;;;;;5.02;75.60;99428.40;103178;1294;112868;-68
2022/12/27 10:23:34;;;;;;;15.90;3.40;;;;;;;5.12;75.56;99439.20;103239;1295;99326;-68
2022/12/27 10:26:20;;;;;;;18.50;3.20;;;;;;;5.25;74.35;99442.51;103278;1297;108049;-68
2022/12/27 10:29:20;;;;;;;18.50;3.50;;;;;;;5.40;74.78;99443.64;103199;1305;99257;-67
2022/12/27 10:31:49;;;;;;;12.90;3.30;;;;;;;5.54;75.13;99436.45;103137;1304;99298;-67
2022/12/27 10:34:23;;;;;;;15.00;4.80;;;;;;;5.67;74.36;99440.46;103044;1303;112882;-67
2022/12/27 10:36:53;;;;;;;17.40;4.50;;;;;;;5.73;74.36;99441.56;103130;1288;99459;-67
2022/12/27 10:39:28;;;;;;;17.10;4.10;;;;;;;5.77;73.94;99440.52;103278;1288;107580;-67
2022/12/27 10:41:59;;;;;;;13.80;3.80;;;;;;;5.80;74.34;99438.10;103156;1301;99224;-67
2022/12/27 10:44:29;;;;;;;19.30;4.50;;;;;;;5.79;74.75;99435.49;103243;1300;99329;-67
2022/12/27 10:47:00;;;;;;;17.80;3.60;;;;;;;5.78;73.21;99438.00;103245;1297;113206;-69
2022/12/27 10:49:34;;;;;;;17.20;3.90;;;;;;;5.74;73.41;99432.52;103270;1295;99306;-69
2022/12/27 10:52:21;;;;;;;17.70;3.50;;;;;;;5.75;73.69;99437.08;103231;1297;107556;-68
2022/12/27 10:54:56;;;;;;;13.50;4.10;;;;;;;5.75;73.67;99439.36;103158;1295;99774;-67
2022/12/27 10:57:34;;;;;;;14.50;4.10;;;;;;;5.72;74.17;99436.54;103176;1297;99313;-68
2022/12/27 11:00:12;;;;;;;15.40;3.70;;;;;;;5.61;72.09;99442.30;103133;1304;112498;-68
2022/12/27 11:02:54;;;;;;;19.60;4.50;;;;;;;5.49;72.98;99446.05;103206;1300;99213;-69
2022/12/27 11:05:25;;;;;;;14.70;4.30;;;;;;;5.41;73.69;99456.05;103170;1295;107572;-67
2022/12/27 11:07:55;;;;;;;14.70;3.40;;;;;;;5.36;73.28;99456.79;103136;1302;99765;-66
2022/12/27 11:10:27;;;;;;;17.80;3.60;;;;;;;5.29;73.48;99469.61;103140;1290;99365;-67
2022/12/27 11:13:03;;;;;;;15.70;3.70;;;;;;;5.21;73.66;99474.18;103145;1294;113391;-68
2022/12/27 11:15:35;;;;;;;;;;;;;;;5.16;73.46;99472.80;103162;1297;99051;-69
2022/12/27 11:18:17;;;;;;;15.30;3.70;;;;;;;5.13;73.93;99476.44;103063;1290;108084;-67
2022/12/27 11:20:50;;;;;;;14.60;3.80;;;;;;;5.12;73.73;99481.73;103102;1300;99302;-66
2022/12/27 11:23:23;;;;;;;14.50;3.40;;;;;;;5.08;73.71;99476.31;103129;1302;98495;-67
2022/12/27 11:25:59;;;;;;;15.60;3.50;;;;;;;5.03;73.43;99483.05;103155;1305;113010;-67
2022/12/27 11:28:43;;;;;;;16.10;3.70;;;;;;;4.98;72.66;99488.53;103086;1303;99200;-66
2022/12/27 11:31:26;;;;;;;17.80;4.40;;;;;;;4.87;73.19;99486.52;103071;1303;107848;-68
2022/12/27 11:34:06;;;;;;;10.70;3.30;;;;;;;4.80;73.50;99491.75;103196;1303;99280;-67
2022/12/27 11:36:41;;;;;;;20.10;4.30;;;;;;;4.72;73.15;99492.75;103184;1295;99248;-67
2022/12/27 11:39:42;;;;;;;19.90;5.50;;;;;;;4.67;73.18;99501.77;103138;1297;112530;-67
2022/12/27 11:42:17;;;;;;;17.00;3.90;;;;;;;4.60;73.08;99501.89;103192;1298;99328;-68
2022/12/27 11:45:12;;;;;;;15.00;3.50;;;;;;;4.56;73.10;99505.36;103132;1297;108173;-69
2022/12/27 11:48:03;;;;;;;15.10;4.10;;;;;;;4.65;73.17;99504.99;103093;1295;96503;-70
2022/12/27 11:50:53;;;;;;;14.90;4.60;;;;;;;4.76;73.24;99509.99;103164;1300;99309;-68
2022/12/27 11:53:55;;;;;;;13.60;3.60;;;;;;;4.94;73.30;99508.20;103108;1294;113187;-68
2022/12/27 11:56:34;;;;;;;15.30;3.90;;;;;;;5.13;72.62;99503.68;103065;1294;99370;-71
2022/12/27 11:59:21;;;;;;;12.20;3.70;;;;;;;5.19;72.58;99502.38;103168;1304;107333;-69
2022/12/27 12:02:10;;;;;;;13.50;3.40;;;;;;;5.11;72.01;99511.36;103021;1297;99323;-68
2022/12/27 12:05:03;;;;;;;18.90;4.40;;;;;;;4.98;71.72;99510.67;103116;1301;99379;-67
2022/12/27 12:08:01;;;;;;;12.00;3.40;;;;;;;4.91;72.37;99515.55;103122;1301;112592;-67
2022/12/27 12:10:42;;;;;;;17.30;3.90;;;;;;;4.79;72.72;99514.43;103123;1303;99242;-68
2022/12/27 12:13:29;;;;;;;16.90;3.90;;;;;;;4.72;72.17;99513.11;103155;1293;108142;-67
2022/12/27 12:16:35;;;;;;;14.40;4.00;;;;;;;4.81;72.39;99519.10;103131;1297;96666;-68
2022/12/27 12:19:17;;;;;;;15.00;4.20;;;;;;;4.93;72.15;99520.02;103108;1296;99233;-69
2022/12/27 12:21:45;;;;;;;11.70;3.70;;;;;;;5.04;72.47;99516.73;103070;1302;113472;-67
2022/12/27 12:24:56;;;;;;;13.00;3.30;;;;;;;5.16;72.67;99514.30;103121;1301;99300;-66
2022/12/27 12:28:07;;;;;;;12.40;3.20;;;;;;;5.20;72.35;99517.80;103116;1303;108465;-67
2022/12/27 12:31:11;;;;;;;10.90;3.20;;;;;;;5.15;71.69;99522.94;103038;1291;97649;-67
2022/12/27 12:34:03;;;;;;;14.40;3.60;;;;;;;5.05;72.02;99522.13;103042;1297;99246;-67
2022/12/27 12:36:54;;;;;;;14.70;3.30;;;;;;;5.01;72.02;99525.13;102988;1296;112972;-65
2022/12/27 12:39:47;;;;;;;12.90;3.40;;;;;;;5.10;72.44;99524.05;103601;1303;99416;-68
2022/12/27 12:42:18;;;;;;;11.70;3.50;;;;;;;5.19;72.36;99516.45;102999;1296;108172;-67
2022/12/27 12:45:00;;;;;;;12.10;3.30;;;;;;;5.19;72.31;99516.62;104897;1298;97332;-67
2022/12/27 12:47:59;;;;;;;15.40;4.40;;;;;;;5.17;72.23;99522.16;104651;1305;96846;-67
2022/12/27 12:50:46;;;;;;;12.70;3.50;;;;;;;5.11;71.91;99522.23;103319;1303;112793;-67
2022/12/27 12:53:16;;;;;;;16.30;3.80;;;;;;;5.09;71.93;99533.06;103130;1303;99343;-68
2022/12/27 12:56:10;;;;;;;14.30;4.10;;;;;;;5.15;71.98;99531.40;103143;1304;108088;-69
2022/12/27 12:59:20;;;;;;;10.10;3.40;;;;;;;5.22;71.77;99534.27;103101;1297;96672;-67
2022/12/27 13:02:16;;;;;;;9.20;3.00;;;;;;;5.19;70.79;99539.28;103043;1303;99221;-67
2022/12/27 13:05:11;;;;;;;13.40;2.90;;;;;;;5.10;71.54;99537.92;103081;1305;113591;-68
2022/12/27 13:08:01;;;;;;;13.30;3.40;;;;;;;5.06;71.74;99540.38;103102;1296;99287;-67
2022/12/27 13:10:51;;;;;;;11.30;4.00;;;;;;;5.00;71.75;99543.96;103054;1304;107778;-66
2022/12/27 13:13:51;;;;;;;11.10;3.80;;;;;;;4.94;71.43;99541.61;103041;1301;100273;-67
2022/12/27 13:16:47;;;;;;;15.30;4.00;;;;;;;4.89;71.38;99537.55;103128;1296;99310;-67
2022/12/27 13:19:46;;;;;;;11.40;3.70;;;;;;;4.85;71.05;99538.27;103070;1302;112980;-68
2022/12/27 13:22:33;;;;;;;16.90;4.60;;;;;;;4.78;71.05;99536.96;103030;1296;96520;-66
2022/12/27 13:25:42;;;;;;;15.60;4.30;;;;;;;4.73;71.19;99537.00;103023;1306;108137;-67
2022/12/27 13:28:41;;;;;;;19.90;5.10;;;;;;;4.70;71.34;99539.41;102723;1297;99187;-66
2022/12/27 13:31:18;;;;;;;14.50;3.90;;;;;;;4.69;71.03;99541.59;103135;1295;99153;-67
2022/12/27 13:34:01;;;;;;;11.30;3.20;;;;;;;4.67;70.80;99542.02;103120;1289;113696;-67
2022/12/27 13:37:03;;;;;;;10.50;3.40;;;;;;;4.63;70.39;99541.27;103117;1298;98907;-69
2022/12/27 13:39:46;;;;;;;18.40;4.60;;;;;;;4.56;70.68;99540.14;103095;1294;107326;-67
2022/12/27 13:42:46;;;;;;;13.70;3.50;;;;;;;4.51;70.90;99544.76;103107;1289;99225;-66
2022/12/27 13:45:45;;;;;;;13.80;3.70;;;;;;;4.50;70.90;99548.48;103184;1295;99236;-66
2022/12/27 13:48:32;;;;;;;13.40;3.80;;;;;;;4.50;70.43;99551.27;103470;1280;112412;-66
2022/12/27 13:51:03;;;;;;;11.20;3.70;;;;;;;4.49;70.58;99563.25;103240;1287;97766;-67
2022/12/27 13:54:06;;;;;;;16.60;4.30;;;;;;;4.48;70.39;99569.29;103175;1294;107507;-67